sensor_id;sensor_type;location;lat;lon;timestamp;P1;durP1;ratioP1;P2;durP2;ratioP2
53931;SDS011;39844;52.496;13.482;2023-08-17T00:01:49;3.83;;;1.67;;
53931;SDS011;39844;52.496;13.482;2023-08-17T00:04:14;2.28;;;1.60;;
53931;SDS011;39844;52.496;13.482;2023-08-17T00:06:39;1.90;;;1.65;;
53931;SDS011;39844;52.496;13.482;2023-08-17T00:09:04;1.88;;;1.63;;
53931;SDS011;39844;52.496;13.482;2023-08-17T00:11:30;2.00;;;1.67;;
53931;SDS011;39844;52.496;13.482;2023-08-17T00:13:55;1.83;;;1.73;;
53931;SDS011;39844;52.496;13.482;2023-08-17T00:16:21;2.00;;;1.75;;
53931;SDS011;39844;52.496;13.482;2023-08-17T00:18:47;2.97;;;1.80;;
53931;SDS011;39844;52.496;13.482;2023-08-17T00:21:12;3.85;;;1.85;;
53931;SDS011;39844;52.496;13.482;2023-08-17T00:23:37;4.00;;;1.80;;
53931;SDS011;39844;52.496;13.482;2023-08-17T00:26:03;1.77;;;1.40;;
53931;SDS011;39844;52.496;13.482;2023-08-17T00:28:28;3.17;;;1.55;;
53931;SDS011;39844;52.496;13.482;2023-08-17T00:30:53;1.60;;;1.50;;
53931;SDS011;39844;52.496;13.482;2023-08-17T00:33:19;1.70;;;1.60;;
53931;SDS011;39844;52.496;13.482;2023-08-17T00:35:44;1.63;;;1.52;;
53931;SDS011;39844;52.496;13.482;2023-08-17T00:38:09;1.67;;;1.58;;
53931;SDS011;39844;52.496;13.482;2023-08-17T00:40:35;2.85;;;1.63;;
53931;SDS011;39844;52.496;13.482;2023-08-17T00:43:00;2.25;;;1.75;;
53931;SDS011;39844;52.496;13.482;2023-08-17T00:45:25;4.75;;;1.60;;
53931;SDS011;39844;52.496;13.482;2023-08-17T00:47:53;1.75;;;1.65;;
53931;SDS011;39844;52.496;13.482;2023-08-17T00:50:21;3.78;;;1.90;;
53931;SDS011;39844;52.496;13.482;2023-08-17T00:52:47;3.95;;;1.63;;
53931;SDS011;39844;52.496;13.482;2023-08-17T00:55:12;3.17;;;1.80;;
53931;SDS011;39844;52.496;13.482;2023-08-17T00:57:38;3.45;;;1.60;;
53931;SDS011;39844;52.496;13.482;2023-08-17T01:00:05;3.03;;;1.70;;
53931;SDS011;39844;52.496;13.482;2023-08-17T01:02:31;1.80;;;1.70;;
53931;SDS011;39844;52.496;13.482;2023-08-17T01:04:56;3.47;;;1.63;;
53931;SDS011;39844;52.496;13.482;2023-08-17T01:07:22;1.98;;;1.60;;
53931;SDS011;39844;52.496;13.482;2023-08-17T01:09:47;1.58;;;1.48;;
53931;SDS011;39844;52.496;13.482;2023-08-17T01:13:00;3.78;;;1.85;;
53931;SDS011;39844;52.496;13.482;2023-08-17T01:17:38;2.60;;;1.52;;
53931;SDS011;39844;52.496;13.482;2023-08-17T01:20:08;2.13;;;1.58;;
53931;SDS011;39844;52.496;13.482;2023-08-17T01:22:35;2.85;;;1.45;;
53931;SDS011;39844;52.496;13.482;2023-08-17T01:25:00;1.95;;;1.70;;
53931;SDS011;39844;52.496;13.482;2023-08-17T01:27:29;2.88;;;1.75;;
53931;SDS011;39844;52.496;13.482;2023-08-17T01:30:02;1.83;;;1.70;;
53931;SDS011;39844;52.496;13.482;2023-08-17T01:32:34;1.92;;;1.70;;
53931;SDS011;39844;52.496;13.482;2023-08-17T01:37:57;2.10;;;1.90;;
53931;SDS011;39844;52.496;13.482;2023-08-17T01:40:24;2.83;;;1.85;;
53931;SDS011;39844;52.496;13.482;2023-08-17T01:42:52;1.30;;;1.30;;
53931;SDS011;39844;52.496;13.482;2023-08-17T01:45:19;3.33;;;1.63;;
53931;SDS011;39844;52.496;13.482;2023-08-17T01:47:44;1.73;;;1.60;;
53931;SDS011;39844;52.496;13.482;2023-08-17T01:50:09;2.50;;;1.50;;
53931;SDS011;39844;52.496;13.482;2023-08-17T01:52:35;2.33;;;1.60;;
53931;SDS011;39844;52.496;13.482;2023-08-17T01:55:00;2.60;;;1.80;;
53931;SDS011;39844;52.496;13.482;2023-08-17T01:57:25;2.85;;;1.77;;
53931;SDS011;39844;52.496;13.482;2023-08-17T01:59:51;1.83;;;1.50;;
53931;SDS011;39844;52.496;13.482;2023-08-17T02:02:16;2.25;;;1.58;;
53931;SDS011;39844;52.496;13.482;2023-08-17T02:04:41;2.42;;;1.60;;
53931;SDS011;39844;52.496;13.482;2023-08-17T02:07:07;3.85;;;1.70;;
53931;SDS011;39844;52.496;13.482;2023-08-17T02:09:32;2.08;;;1.98;;
53931;SDS011;39844;52.496;13.482;2023-08-17T02:11:57;2.30;;;1.60;;
53931;SDS011;39844;52.496;13.482;2023-08-17T02:14:22;1.60;;;1.50;;
53931;SDS011;39844;52.496;13.482;2023-08-17T02:16:48;1.50;;;1.40;;
53931;SDS011;39844;52.496;13.482;2023-08-17T02:19:13;2.60;;;1.75;;
53931;SDS011;39844;52.496;13.482;2023-08-17T02:21:38;1.58;;;1.48;;
53931;SDS011;39844;52.496;13.482;2023-08-17T02:24:04;2.22;;;1.80;;
53931;SDS011;39844;52.496;13.482;2023-08-17T02:26:29;2.05;;;1.52;;
53931;SDS011;39844;52.496;13.482;2023-08-17T02:28:55;1.80;;;1.70;;
53931;SDS011;39844;52.496;13.482;2023-08-17T02:31:20;4.10;;;1.60;;
53931;SDS011;39844;52.496;13.482;2023-08-17T02:33:46;2.08;;;1.88;;
53931;SDS011;39844;52.496;13.482;2023-08-17T02:36:11;1.92;;;1.83;;
53931;SDS011;39844;52.496;13.482;2023-08-17T02:38:36;1.95;;;1.77;;
53931;SDS011;39844;52.496;13.482;2023-08-17T02:41:01;2.72;;;1.60;;
53931;SDS011;39844;52.496;13.482;2023-08-17T02:43:27;2.70;;;1.40;;
53931;SDS011;39844;52.496;13.482;2023-08-17T02:45:52;1.73;;;1.63;;
53931;SDS011;39844;52.496;13.482;2023-08-17T02:48:18;2.50;;;1.70;;
53931;SDS011;39844;52.496;13.482;2023-08-17T02:50:43;3.00;;;1.63;;
53931;SDS011;39844;52.496;13.482;2023-08-17T02:53:08;3.95;;;1.40;;
53931;SDS011;39844;52.496;13.482;2023-08-17T02:55:33;2.97;;;1.60;;
53931;SDS011;39844;52.496;13.482;2023-08-17T02:57:59;1.90;;;1.75;;
53931;SDS011;39844;52.496;13.482;2023-08-17T03:00:24;1.95;;;1.75;;
53931;SDS011;39844;52.496;13.482;2023-08-17T03:02:49;1.60;;;1.50;;
53931;SDS011;39844;52.496;13.482;2023-08-17T03:05:15;2.20;;;1.90;;
53931;SDS011;39844;52.496;13.482;2023-08-17T03:07:40;3.67;;;2.00;;
53931;SDS011;39844;52.496;13.482;2023-08-17T03:10:05;3.33;;;1.60;;
53931;SDS011;39844;52.496;13.482;2023-08-17T03:12:31;2.45;;;1.70;;
53931;SDS011;39844;52.496;13.482;2023-08-17T03:14:56;4.70;;;1.80;;
53931;SDS011;39844;52.496;13.482;2023-08-17T03:17:21;2.90;;;1.83;;
53931;SDS011;39844;52.496;13.482;2023-08-17T03:19:47;3.60;;;1.87;;
53931;SDS011;39844;52.496;13.482;2023-08-17T03:22:12;2.22;;;1.55;;
53931;SDS011;39844;52.496;13.482;2023-08-17T03:24:37;1.60;;;1.50;;
53931;SDS011;39844;52.496;13.482;2023-08-17T03:27:03;1.80;;;1.70;;
53931;SDS011;39844;52.496;13.482;2023-08-17T03:29:28;1.85;;;1.58;;
53931;SDS011;39844;52.496;13.482;2023-08-17T03:31:53;6.03;;;1.80;;
53931;SDS011;39844;52.496;13.482;2023-08-17T03:34:19;2.33;;;1.73;;
53931;SDS011;39844;52.496;13.482;2023-08-17T03:36:44;2.97;;;1.70;;
53931;SDS011;39844;52.496;13.482;2023-08-17T03:39:09;3.28;;;1.58;;
53931;SDS011;39844;52.496;13.482;2023-08-17T03:41:34;2.30;;;1.43;;
53931;SDS011;39844;52.496;13.482;2023-08-17T03:44:00;2.57;;;1.37;;
53931;SDS011;39844;52.496;13.482;2023-08-17T03:46:25;2.40;;;1.77;;
53931;SDS011;39844;52.496;13.482;2023-08-17T03:48:50;1.70;;;1.37;;
53931;SDS011;39844;52.496;13.482;2023-08-17T03:51:16;1.50;;;1.40;;
53931;SDS011;39844;52.496;13.482;2023-08-17T03:53:41;3.67;;;1.53;;
53931;SDS011;39844;52.496;13.482;2023-08-17T03:56:06;1.58;;;1.25;;
53931;SDS011;39844;52.496;13.482;2023-08-17T03:58:31;1.35;;;1.25;;
53931;SDS011;39844;52.496;13.482;2023-08-17T04:00:57;2.35;;;1.58;;
53931;SDS011;39844;52.496;13.482;2023-08-17T04:03:22;2.35;;;1.60;;
53931;SDS011;39844;52.496;13.482;2023-08-17T04:05:49;2.33;;;1.30;;
53931;SDS011;39844;52.496;13.482;2023-08-17T04:08:15;4.03;;;1.67;;
53931;SDS011;39844;52.496;13.482;2023-08-17T04:10:40;1.98;;;1.30;;
53931;SDS011;39844;52.496;13.482;2023-08-17T04:13:05;1.50;;;1.40;;
53931;SDS011;39844;52.496;13.482;2023-08-17T04:15:31;1.38;;;1.33;;
53931;SDS011;39844;52.496;13.482;2023-08-17T04:17:56;2.95;;;1.67;;
53931;SDS011;39844;52.496;13.482;2023-08-17T04:20:21;1.33;;;1.30;;
53931;SDS011;39844;52.496;13.482;2023-08-17T04:22:46;1.50;;;1.40;;
53931;SDS011;39844;52.496;13.482;2023-08-17T04:25:12;4.20;;;1.50;;
53931;SDS011;39844;52.496;13.482;2023-08-17T04:27:38;1.50;;;1.40;;
53931;SDS011;39844;52.496;13.482;2023-08-17T04:30:03;3.03;;;1.40;;
53931;SDS011;39844;52.496;13.482;2023-08-17T04:32:29;1.63;;;1.47;;
53931;SDS011;39844;52.496;13.482;2023-08-17T04:34:54;3.40;;;1.70;;
53931;SDS011;39844;52.496;13.482;2023-08-17T04:37:19;1.67;;;1.40;;
53931;SDS011;39844;52.496;13.482;2023-08-17T04:39:45;3.87;;;1.40;;
53931;SDS011;39844;52.496;13.482;2023-08-17T04:42:10;1.10;;;1.10;;
53931;SDS011;39844;52.496;13.482;2023-08-17T04:44:35;1.63;;;1.45;;
53931;SDS011;39844;52.496;13.482;2023-08-17T04:47:01;4.07;;;1.67;;
53931;SDS011;39844;52.496;13.482;2023-08-17T04:49:26;1.33;;;1.33;;
53931;SDS011;39844;52.496;13.482;2023-08-17T04:51:52;1.20;;;1.20;;
53931;SDS011;39844;52.496;13.482;2023-08-17T04:54:17;1.33;;;1.23;;
53931;SDS011;39844;52.496;13.482;2023-08-17T04:56:43;4.07;;;1.30;;
53931;SDS011;39844;52.496;13.482;2023-08-17T04:59:08;2.07;;;1.53;;
53931;SDS011;39844;52.496;13.482;2023-08-17T05:01:33;1.70;;;1.60;;
53931;SDS011;39844;52.496;13.482;2023-08-17T05:03:59;1.83;;;1.40;;
53931;SDS011;39844;52.496;13.482;2023-08-17T05:06:24;1.53;;;1.43;;
53931;SDS011;39844;52.496;13.482;2023-08-17T05:08:49;1.33;;;1.30;;
53931;SDS011;39844;52.496;13.482;2023-08-17T05:11:15;2.13;;;1.40;;
53931;SDS011;39844;52.496;13.482;2023-08-17T05:13:40;4.63;;;1.57;;
53931;SDS011;39844;52.496;13.482;2023-08-17T05:16:05;1.30;;;1.20;;
53931;SDS011;39844;52.496;13.482;2023-08-17T05:18:31;1.63;;;1.30;;
53931;SDS011;39844;52.496;13.482;2023-08-17T05:20:56;3.03;;;1.48;;
53931;SDS011;39844;52.496;13.482;2023-08-17T05:23:21;3.22;;;1.70;;
53931;SDS011;39844;52.496;13.482;2023-08-17T05:25:47;1.60;;;1.50;;
53931;SDS011;39844;52.496;13.482;2023-08-17T05:28:12;2.67;;;1.38;;
53931;SDS011;39844;52.496;13.482;2023-08-17T05:30:38;1.60;;;1.20;;
53931;SDS011;39844;52.496;13.482;2023-08-17T05:33:03;1.42;;;1.33;;
53931;SDS011;39844;52.496;13.482;2023-08-17T05:35:29;1.58;;;1.40;;
53931;SDS011;39844;52.496;13.482;2023-08-17T05:37:54;3.08;;;1.50;;
53931;SDS011;39844;52.496;13.482;2023-08-17T05:40:19;2.47;;;1.50;;
53931;SDS011;39844;52.496;13.482;2023-08-17T05:42:45;1.30;;;1.30;;
53931;SDS011;39844;52.496;13.482;2023-08-17T05:45:10;1.50;;;1.40;;
53931;SDS011;39844;52.496;13.482;2023-08-17T05:47:36;8.68;;;1.30;;
53931;SDS011;39844;52.496;13.482;2023-08-17T05:50:01;1.63;;;1.50;;
53931;SDS011;39844;52.496;13.482;2023-08-17T05:52:26;2.08;;;1.60;;
53931;SDS011;39844;52.496;13.482;2023-08-17T05:54:51;1.60;;;1.50;;
53931;SDS011;39844;52.496;13.482;2023-08-17T05:57:17;1.33;;;1.23;;
53931;SDS011;39844;52.496;13.482;2023-08-17T05:59:42;3.60;;;1.70;;
53931;SDS011;39844;52.496;13.482;2023-08-17T06:02:07;1.25;;;1.25;;
53931;SDS011;39844;52.496;13.482;2023-08-17T06:04:33;1.40;;;1.38;;
53931;SDS011;39844;52.496;13.482;2023-08-17T06:06:58;1.75;;;1.40;;
53931;SDS011;39844;52.496;13.482;2023-08-17T06:09:23;1.90;;;1.30;;
53931;SDS011;39844;52.496;13.482;2023-08-17T06:11:48;1.27;;;1.17;;
53931;SDS011;39844;52.496;13.482;2023-08-17T06:14:14;1.58;;;1.50;;
53931;SDS011;39844;52.496;13.482;2023-08-17T06:16:39;1.88;;;1.25;;
53931;SDS011;39844;52.496;13.482;2023-08-17T06:19:04;1.70;;;1.48;;
53931;SDS011;39844;52.496;13.482;2023-08-17T06:21:30;1.15;;;1.15;;
53931;SDS011;39844;52.496;13.482;2023-08-17T06:23:55;4.70;;;1.38;;
53931;SDS011;39844;52.496;13.482;2023-08-17T06:26:20;1.40;;;1.30;;
53931;SDS011;39844;52.496;13.482;2023-08-17T06:28:45;1.60;;;1.20;;
53931;SDS011;39844;52.496;13.482;2023-08-17T06:31:14;1.55;;;1.45;;
53931;SDS011;39844;52.496;13.482;2023-08-17T06:33:40;1.77;;;1.40;;
53931;SDS011;39844;52.496;13.482;2023-08-17T06:36:05;1.35;;;1.25;;
53931;SDS011;39844;52.496;13.482;2023-08-17T06:38:30;1.40;;;1.30;;
53931;SDS011;39844;52.496;13.482;2023-08-17T06:40:56;1.88;;;1.20;;
53931;SDS011;39844;52.496;13.482;2023-08-17T06:43:21;1.55;;;1.48;;
53931;SDS011;39844;52.496;13.482;2023-08-17T06:45:46;1.23;;;1.20;;
53931;SDS011;39844;52.496;13.482;2023-08-17T06:48:12;1.00;;;1.00;;
53931;SDS011;39844;52.496;13.482;2023-08-17T06:50:37;1.65;;;1.40;;
53931;SDS011;39844;52.496;13.482;2023-08-17T06:53:02;1.77;;;1.60;;
53931;SDS011;39844;52.496;13.482;2023-08-17T06:55:28;1.30;;;1.30;;
53931;SDS011;39844;52.496;13.482;2023-08-17T06:57:53;1.45;;;1.40;;
53931;SDS011;39844;52.496;13.482;2023-08-17T07:00:18;2.75;;;1.50;;
53931;SDS011;39844;52.496;13.482;2023-08-17T07:02:44;3.50;;;1.38;;
53931;SDS011;39844;52.496;13.482;2023-08-17T07:05:09;1.30;;;1.20;;
53931;SDS011;39844;52.496;13.482;2023-08-17T07:07:34;1.45;;;1.30;;
53931;SDS011;39844;52.496;13.482;2023-08-17T07:09:59;2.03;;;1.60;;
53931;SDS011;39844;52.496;13.482;2023-08-17T07:12:25;1.45;;;1.45;;
53931;SDS011;39844;52.496;13.482;2023-08-17T07:14:50;1.63;;;1.52;;
53931;SDS011;39844;52.496;13.482;2023-08-17T07:17:16;5.40;;;1.73;;
53931;SDS011;39844;52.496;13.482;2023-08-17T07:19:41;1.67;;;1.30;;
53931;SDS011;39844;52.496;13.482;2023-08-17T07:22:06;2.22;;;1.40;;
53931;SDS011;39844;52.496;13.482;2023-08-17T07:24:32;1.20;;;1.20;;
53931;SDS011;39844;52.496;13.482;2023-08-17T07:26:57;1.30;;;1.20;;
53931;SDS011;39844;52.496;13.482;2023-08-17T07:29:22;1.38;;;1.38;;
53931;SDS011;39844;52.496;13.482;2023-08-17T07:31:48;1.88;;;1.48;;
53931;SDS011;39844;52.496;13.482;2023-08-17T07:34:13;1.30;;;1.17;;
53931;SDS011;39844;52.496;13.482;2023-08-17T07:36:38;1.70;;;1.60;;
53931;SDS011;39844;52.496;13.482;2023-08-17T07:39:04;1.40;;;1.30;;
53931;SDS011;39844;52.496;13.482;2023-08-17T07:41:29;2.28;;;1.50;;
53931;SDS011;39844;52.496;13.482;2023-08-17T07:43:54;1.98;;;1.67;;
53931;SDS011;39844;52.496;13.482;2023-08-17T07:46:20;2.30;;;1.67;;
53931;SDS011;39844;52.496;13.482;2023-08-17T07:48:45;1.67;;;1.50;;
53931;SDS011;39844;52.496;13.482;2023-08-17T07:51:10;1.80;;;1.50;;
53931;SDS011;39844;52.496;13.482;2023-08-17T07:53:35;1.80;;;1.70;;
53931;SDS011;39844;52.496;13.482;2023-08-17T07:56:01;1.92;;;1.38;;
53931;SDS011;39844;52.496;13.482;2023-08-17T07:58:26;1.55;;;1.45;;
53931;SDS011;39844;52.496;13.482;2023-08-17T08:00:51;1.50;;;1.40;;
53931;SDS011;39844;52.496;13.482;2023-08-17T08:03:17;1.80;;;1.70;;
53931;SDS011;39844;52.496;13.482;2023-08-17T08:05:42;1.50;;;1.40;;
53931;SDS011;39844;52.496;13.482;2023-08-17T08:08:07;2.67;;;1.75;;
53931;SDS011;39844;52.496;13.482;2023-08-17T08:10:33;1.80;;;1.48;;
53931;SDS011;39844;52.496;13.482;2023-08-17T08:12:58;1.40;;;1.38;;
53931;SDS011;39844;52.496;13.482;2023-08-17T08:15:23;3.00;;;1.83;;
53931;SDS011;39844;52.496;13.482;2023-08-17T08:17:49;3.40;;;1.50;;
53931;SDS011;39844;52.496;13.482;2023-08-17T08:20:14;3.70;;;1.90;;
53931;SDS011;39844;52.496;13.482;2023-08-17T08:22:39;2.38;;;1.70;;
53931;SDS011;39844;52.496;13.482;2023-08-17T08:25:05;1.70;;;1.60;;
53931;SDS011;39844;52.496;13.482;2023-08-17T08:27:30;3.03;;;1.83;;
53931;SDS011;39844;52.496;13.482;2023-08-17T08:29:56;2.13;;;1.98;;
53931;SDS011;39844;52.496;13.482;2023-08-17T08:32:21;2.95;;;1.90;;
53931;SDS011;39844;52.496;13.482;2023-08-17T08:34:46;4.43;;;1.60;;
53931;SDS011;39844;52.496;13.482;2023-08-17T08:37:11;1.58;;;1.50;;
53931;SDS011;39844;52.496;13.482;2023-08-17T08:39:49;1.95;;;1.58;;
53931;SDS011;39844;52.496;13.482;2023-08-17T08:42:15;5.80;;;2.05;;
53931;SDS011;39844;52.496;13.482;2023-08-17T08:44:40;4.05;;;1.77;;
53931;SDS011;39844;52.496;13.482;2023-08-17T08:47:05;2.28;;;2.08;;
53931;SDS011;39844;52.496;13.482;2023-08-17T08:49:31;1.95;;;1.85;;
53931;SDS011;39844;52.496;13.482;2023-08-17T08:52:03;1.70;;;1.60;;
53931;SDS011;39844;52.496;13.482;2023-08-17T08:54:32;1.90;;;1.77;;
53931;SDS011;39844;52.496;13.482;2023-08-17T08:57:01;5.68;;;2.00;;
53931;SDS011;39844;52.496;13.482;2023-08-17T08:59:28;3.20;;;2.00;;
53931;SDS011;39844;52.496;13.482;2023-08-17T09:01:55;2.28;;;2.08;;
53931;SDS011;39844;52.496;13.482;2023-08-17T09:04:23;2.00;;;1.90;;
53931;SDS011;39844;52.496;13.482;2023-08-17T09:06:48;1.80;;;1.70;;
53931;SDS011;39844;52.496;13.482;2023-08-17T09:09:15;1.70;;;1.63;;
53931;SDS011;39844;52.496;13.482;2023-08-17T09:11:43;1.92;;;1.83;;
53931;SDS011;39844;52.496;13.482;2023-08-17T09:14:08;3.85;;;2.00;;
53931;SDS011;39844;52.496;13.482;2023-08-17T09:16:33;1.90;;;1.80;;
53931;SDS011;39844;52.496;13.482;2023-08-17T09:18:59;2.00;;;1.90;;
53931;SDS011;39844;52.496;13.482;2023-08-17T09:21:24;2.20;;;1.77;;
53931;SDS011;39844;52.496;13.482;2023-08-17T09:23:53;1.95;;;1.77;;
53931;SDS011;39844;52.496;13.482;2023-08-17T09:26:20;2.20;;;2.10;;
53931;SDS011;39844;52.496;13.482;2023-08-17T09:28:46;2.35;;;2.15;;
53931;SDS011;39844;52.496;13.482;2023-08-17T09:31:11;2.13;;;1.88;;
53931;SDS011;39844;52.496;13.482;2023-08-17T09:33:36;3.92;;;1.77;;
53931;SDS011;39844;52.496;13.482;2023-08-17T09:36:02;5.13;;;1.90;;
53931;SDS011;39844;52.496;13.482;2023-08-17T09:38:27;1.90;;;1.80;;
53931;SDS011;39844;52.496;13.482;2023-08-17T09:40:53;2.10;;;1.98;;
53931;SDS011;39844;52.496;13.482;2023-08-17T09:43:18;2.95;;;1.65;;
53931;SDS011;39844;52.496;13.482;2023-08-17T09:45:44;2.22;;;2.08;;
53931;SDS011;39844;52.496;13.482;2023-08-17T09:48:10;2.38;;;2.08;;
53931;SDS011;39844;52.496;13.482;2023-08-17T09:50:38;2.15;;;2.05;;
53931;SDS011;39844;52.496;13.482;2023-08-17T09:53:03;2.40;;;2.20;;
53931;SDS011;39844;52.496;13.482;2023-08-17T09:55:31;2.20;;;1.75;;
53931;SDS011;39844;52.496;13.482;2023-08-17T09:57:59;1.83;;;1.75;;
53931;SDS011;39844;52.496;13.482;2023-08-17T10:00:32;2.15;;;1.80;;
53931;SDS011;39844;52.496;13.482;2023-08-17T10:03:06;2.03;;;1.92;;
53931;SDS011;39844;52.496;13.482;2023-08-17T10:05:34;2.05;;;1.92;;
53931;SDS011;39844;52.496;13.482;2023-08-17T10:08:05;1.92;;;1.80;;
53931;SDS011;39844;52.496;13.482;2023-08-17T10:10:35;2.25;;;2.10;;
53931;SDS011;39844;52.496;13.482;2023-08-17T10:13:09;2.90;;;2.03;;
53931;SDS011;39844;52.496;13.482;2023-08-17T10:15:43;2.35;;;2.13;;
53931;SDS011;39844;52.496;13.482;2023-08-17T10:18:33;2.10;;;2.00;;
53931;SDS011;39844;52.496;13.482;2023-08-17T10:21:24;2.45;;;2.25;;
53931;SDS011;39844;52.496;13.482;2023-08-17T10:24:02;2.30;;;2.20;;
53931;SDS011;39844;52.496;13.482;2023-08-17T10:26:33;2.22;;;2.08;;
53931;SDS011;39844;52.496;13.482;2023-08-17T10:29:02;4.80;;;2.60;;
53931;SDS011;39844;52.496;13.482;2023-08-17T10:31:30;3.08;;;2.40;;
53931;SDS011;39844;52.496;13.482;2023-08-17T10:34:06;2.70;;;2.50;;
53931;SDS011;39844;52.496;13.482;2023-08-17T10:36:37;2.00;;;1.90;;
53931;SDS011;39844;52.496;13.482;2023-08-17T10:39:22;2.15;;;2.00;;
53931;SDS011;39844;52.496;13.482;2023-08-17T10:41:55;2.30;;;2.20;;
53931;SDS011;39844;52.496;13.482;2023-08-17T10:49:51;2.92;;;1.88;;
53931;SDS011;39844;52.496;13.482;2023-08-17T10:52:39;3.22;;;2.25;;
53931;SDS011;39844;52.496;13.482;2023-08-17T10:55:08;4.40;;;2.20;;
53931;SDS011;39844;52.496;13.482;2023-08-17T10:57:38;2.75;;;1.98;;
53931;SDS011;39844;52.496;13.482;2023-08-17T11:00:19;4.93;;;2.30;;
53931;SDS011;39844;52.496;13.482;2023-08-17T11:02:55;2.20;;;2.10;;
53931;SDS011;39844;52.496;13.482;2023-08-17T11:08:26;2.65;;;2.45;;
53931;SDS011;39844;52.496;13.482;2023-08-17T11:11:08;1.98;;;1.88;;
53931;SDS011;39844;52.496;13.482;2023-08-17T11:13:38;3.50;;;2.25;;
53931;SDS011;39844;52.496;13.482;2023-08-17T11:16:08;2.20;;;2.10;;
53931;SDS011;39844;52.496;13.482;2023-08-17T11:18:34;2.45;;;2.30;;
53931;SDS011;39844;52.496;13.482;2023-08-17T11:21:03;2.30;;;2.20;;
53931;SDS011;39844;52.496;13.482;2023-08-17T11:23:36;2.58;;;2.38;;
53931;SDS011;39844;52.496;13.482;2023-08-17T11:26:08;2.88;;;2.25;;
53931;SDS011;39844;52.496;13.482;2023-08-17T11:28:38;2.20;;;2.10;;
53931;SDS011;39844;52.496;13.482;2023-08-17T11:31:12;2.35;;;2.20;;
53931;SDS011;39844;52.496;13.482;2023-08-17T11:33:38;2.33;;;2.10;;
53931;SDS011;39844;52.496;13.482;2023-08-17T11:36:07;2.47;;;2.28;;
53931;SDS011;39844;52.496;13.482;2023-08-17T11:38:36;3.70;;;2.45;;
53931;SDS011;39844;52.496;13.482;2023-08-17T11:41:03;2.72;;;2.53;;
53931;SDS011;39844;52.496;13.482;2023-08-17T11:43:32;2.85;;;2.28;;
53931;SDS011;39844;52.496;13.482;2023-08-17T11:45:57;2.25;;;2.05;;
53931;SDS011;39844;52.496;13.482;2023-08-17T11:48:26;2.50;;;2.30;;
53931;SDS011;39844;52.496;13.482;2023-08-17T11:50:52;3.47;;;2.33;;
53931;SDS011;39844;52.496;13.482;2023-08-17T11:53:18;2.55;;;2.28;;
53931;SDS011;39844;52.496;13.482;2023-08-17T11:55:47;2.92;;;2.25;;
53931;SDS011;39844;52.496;13.482;2023-08-17T11:58:12;2.10;;;2.00;;
53931;SDS011;39844;52.496;13.482;2023-08-17T12:00:41;2.40;;;2.30;;
53931;SDS011;39844;52.496;13.482;2023-08-17T12:03:08;2.35;;;2.22;;
53931;SDS011;39844;52.496;13.482;2023-08-17T12:05:33;2.67;;;2.47;;
53931;SDS011;39844;52.496;13.482;2023-08-17T12:08:00;2.92;;;2.72;;
53931;SDS011;39844;52.496;13.482;2023-08-17T12:10:32;2.95;;;2.75;;
53931;SDS011;39844;52.496;13.482;2023-08-17T12:12:58;2.83;;;2.50;;
53931;SDS011;39844;52.496;13.482;2023-08-17T12:15:23;2.67;;;2.47;;
53931;SDS011;39844;52.496;13.482;2023-08-17T12:17:49;2.63;;;2.42;;
53931;SDS011;39844;52.496;13.482;2023-08-17T12:20:15;2.40;;;2.22;;
53931;SDS011;39844;52.496;13.482;2023-08-17T12:22:41;2.90;;;2.70;;
53931;SDS011;39844;52.496;13.482;2023-08-17T12:25:07;3.13;;;2.83;;
53931;SDS011;39844;52.496;13.482;2023-08-17T12:27:34;2.85;;;2.70;;
53931;SDS011;39844;52.496;13.482;2023-08-17T12:30:00;3.15;;;2.92;;
53931;SDS011;39844;52.496;13.482;2023-08-17T12:32:25;2.92;;;2.72;;
53931;SDS011;39844;52.496;13.482;2023-08-17T12:34:51;2.85;;;2.65;;
53931;SDS011;39844;52.496;13.482;2023-08-17T12:37:19;2.60;;;2.40;;
53931;SDS011;39844;52.496;13.482;2023-08-17T12:39:45;2.20;;;2.10;;
53931;SDS011;39844;52.496;13.482;2023-08-17T12:42:11;3.35;;;2.72;;
53931;SDS011;39844;52.496;13.482;2023-08-17T12:44:36;3.20;;;2.90;;
53931;SDS011;39844;52.496;13.482;2023-08-17T12:47:01;2.95;;;2.47;;
53931;SDS011;39844;52.496;13.482;2023-08-17T12:49:27;2.90;;;2.70;;
53931;SDS011;39844;52.496;13.482;2023-08-17T12:51:54;5.63;;;2.80;;
53931;SDS011;39844;52.496;13.482;2023-08-17T12:54:19;2.70;;;2.50;;
53931;SDS011;39844;52.496;13.482;2023-08-17T12:56:45;2.63;;;2.45;;
53931;SDS011;39844;52.496;13.482;2023-08-17T12:59:10;3.10;;;2.88;;
53931;SDS011;39844;52.496;13.482;2023-08-17T13:01:35;2.97;;;2.70;;
53931;SDS011;39844;52.496;13.482;2023-08-17T13:04:01;5.28;;;3.10;;
53931;SDS011;39844;52.496;13.482;2023-08-17T13:06:26;3.13;;;2.90;;
53931;SDS011;39844;52.496;13.482;2023-08-17T13:08:51;3.08;;;2.88;;
53931;SDS011;39844;52.496;13.482;2023-08-17T13:11:16;2.75;;;2.55;;
53931;SDS011;39844;52.496;13.482;2023-08-17T13:13:42;2.80;;;2.70;;
53931;SDS011;39844;52.496;13.482;2023-08-17T13:16:07;2.88;;;2.67;;
53931;SDS011;39844;52.496;13.482;2023-08-17T13:18:34;2.72;;;2.58;;
53931;SDS011;39844;52.496;13.482;2023-08-17T13:20:59;2.83;;;2.70;;
53931;SDS011;39844;52.496;13.482;2023-08-17T13:23:24;3.67;;;3.03;;
53931;SDS011;39844;52.496;13.482;2023-08-17T13:25:49;3.17;;;2.90;;
53931;SDS011;39844;52.496;13.482;2023-08-17T13:28:15;4.88;;;2.85;;
53931;SDS011;39844;52.496;13.482;2023-08-17T13:30:40;3.53;;;2.85;;
53931;SDS011;39844;52.496;13.482;2023-08-17T13:33:05;2.90;;;2.70;;
53931;SDS011;39844;52.496;13.482;2023-08-17T13:35:31;3.22;;;2.92;;
53931;SDS011;39844;52.496;13.482;2023-08-17T13:38:02;2.88;;;2.67;;
53931;SDS011;39844;52.496;13.482;2023-08-17T13:40:27;3.00;;;2.80;;
53931;SDS011;39844;52.496;13.482;2023-08-17T13:42:52;3.20;;;2.90;;
53931;SDS011;39844;52.496;13.482;2023-08-17T13:45:18;3.08;;;2.53;;
53931;SDS011;39844;52.496;13.482;2023-08-17T13:47:43;3.90;;;2.90;;
53931;SDS011;39844;52.496;13.482;2023-08-17T13:50:08;2.53;;;2.38;;
53931;SDS011;39844;52.496;13.482;2023-08-17T13:52:34;3.85;;;2.60;;
53931;SDS011;39844;52.496;13.482;2023-08-17T13:54:59;2.88;;;2.67;;
53931;SDS011;39844;52.496;13.482;2023-08-17T13:57:25;2.67;;;2.45;;
53931;SDS011;39844;52.496;13.482;2023-08-17T13:59:51;2.70;;;2.53;;
53931;SDS011;39844;52.496;13.482;2023-08-17T14:02:16;3.08;;;2.72;;
53931;SDS011;39844;52.496;13.482;2023-08-17T14:04:42;2.50;;;2.30;;
53931;SDS011;39844;52.496;13.482;2023-08-17T14:07:08;2.22;;;2.13;;
53931;SDS011;39844;52.496;13.482;2023-08-17T14:09:33;2.60;;;2.40;;
53931;SDS011;39844;52.496;13.482;2023-08-17T14:11:58;2.58;;;2.30;;
53931;SDS011;39844;52.496;13.482;2023-08-17T14:14:24;2.90;;;2.50;;
53931;SDS011;39844;52.496;13.482;2023-08-17T14:16:49;4.00;;;2.60;;
53931;SDS011;39844;52.496;13.482;2023-08-17T14:19:14;4.10;;;2.70;;
53931;SDS011;39844;52.496;13.482;2023-08-17T14:21:40;2.45;;;2.35;;
53931;SDS011;39844;52.496;13.482;2023-08-17T14:24:05;4.03;;;2.53;;
53931;SDS011;39844;52.496;13.482;2023-08-17T14:26:30;2.42;;;2.25;;
53931;SDS011;39844;52.496;13.482;2023-08-17T14:28:56;2.65;;;2.45;;
53931;SDS011;39844;52.496;13.482;2023-08-17T14:31:21;2.50;;;2.40;;
53931;SDS011;39844;52.496;13.482;2023-08-17T14:33:46;2.90;;;2.60;;
53931;SDS011;39844;52.496;13.482;2023-08-17T14:36:12;2.88;;;2.40;;
53931;SDS011;39844;52.496;13.482;2023-08-17T14:38:37;2.95;;;2.58;;
53931;SDS011;39844;52.496;13.482;2023-08-17T14:41:05;3.33;;;2.78;;
53931;SDS011;39844;52.496;13.482;2023-08-17T14:43:30;2.50;;;2.30;;